sensor_id;sensor_type;location;lat;lon;timestamp;temperature;humidity
80743;SHT31;70142;50.894;6.052;2023-12-20T00:00:13;8.94;88.28
80743;SHT31;70142;50.894;6.052;2023-12-20T00:02:46;8.92;88.00
80743;SHT31;70142;50.894;6.052;2023-12-20T00:05:21;8.97;87.83
80743;SHT31;70142;50.894;6.052;2023-12-20T00:07:54;8.92;87.99
80743;SHT31;70142;50.894;6.052;2023-12-20T00:10:27;8.89;87.88
80743;SHT31;70142;50.894;6.052;2023-12-20T00:13:01;8.90;87.77
80743;SHT31;70142;50.894;6.052;2023-12-20T00:15:35;8.93;87.69
80743;SHT31;70142;50.894;6.052;2023-12-20T00:18:08;8.93;87.34
80743;SHT31;70142;50.894;6.052;2023-12-20T00:20:43;8.90;87.37
80743;SHT31;70142;50.894;6.052;2023-12-20T00:23:16;8.83;87.14
80743;SHT31;70142;50.894;6.052;2023-12-20T00:25:49;8.86;87.15
80743;SHT31;70142;50.894;6.052;2023-12-20T00:28:22;8.75;87.40
80743;SHT31;70142;50.894;6.052;2023-12-20T00:30:56;8.65;87.99
80743;SHT31;70142;50.894;6.052;2023-12-20T00:33:29;8.76;87.51
80743;SHT31;70142;50.894;6.052;2023-12-20T00:36:04;8.70;86.72
80743;SHT31;70142;50.894;6.052;2023-12-20T00:38:38;8.42;85.95
80743;SHT31;70142;50.894;6.052;2023-12-20T00:41:11;8.48;85.46
80743;SHT31;70142;50.894;6.052;2023-12-20T00:43:44;8.34;85.78
80743;SHT31;70142;50.894;6.052;2023-12-20T00:46:17;8.12;84.79
80743;SHT31;70142;50.894;6.052;2023-12-20T00:48:51;8.09;84.10
80743;SHT31;70142;50.894;6.052;2023-12-20T00:51:26;7.90;84.09
80743;SHT31;70142;50.894;6.052;2023-12-20T00:53:59;7.83;84.82
80743;SHT31;70142;50.894;6.052;2023-12-20T00:56:32;7.56;84.52
80743;SHT31;70142;50.894;6.052;2023-12-20T00:59:05;7.37;84.36
80743;SHT31;70142;50.894;6.052;2023-12-20T01:01:38;7.26;84.54
80743;SHT31;70142;50.894;6.052;2023-12-20T01:04:12;7.16;84.38
80743;SHT31;70142;50.894;6.052;2023-12-20T01:06:46;7.09;84.26
80743;SHT31;70142;50.894;6.052;2023-12-20T01:09:20;7.03;84.03
80743;SHT31;70142;50.894;6.052;2023-12-20T01:11:55;6.98;84.20
80743;SHT31;70142;50.894;6.052;2023-12-20T01:14:28;6.96;84.27
80743;SHT31;70142;50.894;6.052;2023-12-20T01:17:02;6.93;84.23
80743;SHT31;70142;50.894;6.052;2023-12-20T01:19:35;6.95;84.14
80743;SHT31;70142;50.894;6.052;2023-12-20T01:22:10;6.98;84.48
80743;SHT31;70142;50.894;6.052;2023-12-20T01:24:45;6.98;84.19
80743;SHT31;70142;50.894;6.052;2023-12-20T01:27:19;7.08;84.16
80743;SHT31;70142;50.894;6.052;2023-12-20T01:29:52;7.13;84.12
80743;SHT31;70142;50.894;6.052;2023-12-20T01:32:25;7.19;83.88
80743;SHT31;70142;50.894;6.052;2023-12-20T01:34:58;7.22;83.81
80743;SHT31;70142;50.894;6.052;2023-12-20T01:37:35;7.33;84.16
80743;SHT31;70142;50.894;6.052;2023-12-20T01:40:10;7.39;83.95
80743;SHT31;70142;50.894;6.052;2023-12-20T01:42:43;7.39;83.91
80743;SHT31;70142;50.894;6.052;2023-12-20T01:45:16;7.39;83.53
80743;SHT31;70142;50.894;6.052;2023-12-20T01:47:50;7.42;83.98
80743;SHT31;70142;50.894;6.052;2023-12-20T01:50:23;7.39;83.80
80743;SHT31;70142;50.894;6.052;2023-12-20T01:53:00;7.36;83.96
80743;SHT31;70142;50.894;6.052;2023-12-20T01:55:38;7.37;84.96
80743;SHT31;70142;50.894;6.052;2023-12-20T01:58:13;7.46;84.37
80743;SHT31;70142;50.894;6.052;2023-12-20T02:00:48;7.39;84.40
80743;SHT31;70142;50.894;6.052;2023-12-20T02:03:21;7.46;84.71
80743;SHT31;70142;50.894;6.052;2023-12-20T02:05:58;7.46;84.19
80743;SHT31;70142;50.894;6.052;2023-12-20T02:08:32;7.50;84.21
80743;SHT31;70142;50.894;6.052;2023-12-20T02:11:06;7.46;84.32
80743;SHT31;70142;50.894;6.052;2023-12-20T02:13:39;7.29;84.07
80743;SHT31;70142;50.894;6.052;2023-12-20T02:16:12;7.29;84.70
80743;SHT31;70142;50.894;6.052;2023-12-20T02:18:46;7.30;84.25
80743;SHT31;70142;50.894;6.052;2023-12-20T02:21:25;7.33;84.04
80743;SHT31;70142;50.894;6.052;2023-12-20T02:23:58;7.24;84.21
80743;SHT31;70142;50.894;6.052;2023-12-20T02:26:32;7.20;84.15
80743;SHT31;70142;50.894;6.052;2023-12-20T02:29:06;7.18;84.19
80743;SHT31;70142;50.894;6.052;2023-12-20T02:31:39;7.19;84.45
80743;SHT31;70142;50.894;6.052;2023-12-20T02:34:13;7.18;84.15
80743;SHT31;70142;50.894;6.052;2023-12-20T02:36:47;7.26;84.27
80743;SHT31;70142;50.894;6.052;2023-12-20T02:39:21;7.16;83.95
80743;SHT31;70142;50.894;6.052;2023-12-20T02:41:55;7.15;84.16
80743;SHT31;70142;50.894;6.052;2023-12-20T02:44:28;7.11;84.15
80743;SHT31;70142;50.894;6.052;2023-12-20T02:47:01;7.08;84.51
80743;SHT31;70142;50.894;6.052;2023-12-20T02:49:34;7.01;84.52
80743;SHT31;70142;50.894;6.052;2023-12-20T02:52:09;6.96;84.70
80743;SHT31;70142;50.894;6.052;2023-12-20T02:54:42;7.05;84.60
80743;SHT31;70142;50.894;6.052;2023-12-20T02:57:15;7.05;84.48
80743;SHT31;70142;50.894;6.052;2023-12-20T02:59:49;6.96;84.54
80743;SHT31;70142;50.894;6.052;2023-12-20T03:02:22;7.02;84.91
80743;SHT31;70142;50.894;6.052;2023-12-20T03:04:55;7.05;84.29
80743;SHT31;70142;50.894;6.052;2023-12-20T03:07:30;6.96;84.43
80743;SHT31;70142;50.894;6.052;2023-12-20T03:10:04;7.06;84.74
80743;SHT31;70142;50.894;6.052;2023-12-20T03:12:51;7.03;84.54
80743;SHT31;70142;50.894;6.052;2023-12-20T03:15:24;7.02;84.62
80743;SHT31;70142;50.894;6.052;2023-12-20T03:17:57;6.99;84.59
80743;SHT31;70142;50.894;6.052;2023-12-20T03:20:31;7.05;84.39
80743;SHT31;70142;50.894;6.052;2023-12-20T03:23:07;6.91;84.83
80743;SHT31;70142;50.894;6.052;2023-12-20T03:25:40;6.99;84.61
80743;SHT31;70142;50.894;6.052;2023-12-20T03:28:14;6.89;84.68
80743;SHT31;70142;50.894;6.052;2023-12-20T03:30:48;6.81;84.88
80743;SHT31;70142;50.894;6.052;2023-12-20T03:33:21;6.77;85.00
80743;SHT31;70142;50.894;6.052;2023-12-20T03:35:55;6.81;84.82
80743;SHT31;70142;50.894;6.052;2023-12-20T03:38:29;6.82;84.42
80743;SHT31;70142;50.894;6.052;2023-12-20T03:41:03;6.81;84.46
80743;SHT31;70142;50.894;6.052;2023-12-20T03:43:36;6.88;84.39
80743;SHT31;70142;50.894;6.052;2023-12-20T03:46:09;6.89;84.25
80743;SHT31;70142;50.894;6.052;2023-12-20T03:48:42;6.74;84.75
80743;SHT31;70142;50.894;6.052;2023-12-20T03:51:19;6.84;84.55
80743;SHT31;70142;50.894;6.052;2023-12-20T03:53:53;6.75;84.23
80743;SHT31;70142;50.894;6.052;2023-12-20T03:56:26;6.75;84.64
80743;SHT31;70142;50.894;6.052;2023-12-20T03:58:59;6.75;84.43
80743;SHT31;70142;50.894;6.052;2023-12-20T04:01:32;6.68;84.69
80743;SHT31;70142;50.894;6.052;2023-12-20T04:04:06;6.67;84.59
80743;SHT31;70142;50.894;6.052;2023-12-20T04:06:40;6.63;84.59
80743;SHT31;70142;50.894;6.052;2023-12-20T04:09:14;6.69;84.40
80743;SHT31;70142;50.894;6.052;2023-12-20T04:11:50;6.72;84.41
80743;SHT31;70142;50.894;6.052;2023-12-20T04:14:23;6.58;84.63
80743;SHT31;70142;50.894;6.052;2023-12-20T04:16:57;6.44;85.10
80743;SHT31;70142;50.894;6.052;2023-12-20T04:19:30;6.44;85.24
80743;SHT31;70142;50.894;6.052;2023-12-20T04:22:03;6.41;85.46
80743;SHT31;70142;50.894;6.052;2023-12-20T04:24:38;6.38;85.54
80743;SHT31;70142;50.894;6.052;2023-12-20T04:27:16;6.33;85.44
80743;SHT31;70142;50.894;6.052;2023-12-20T04:29:49;6.44;85.47
80743;SHT31;70142;50.894;6.052;2023-12-20T04:32:22;6.44;85.37
80743;SHT31;70142;50.894;6.052;2023-12-20T04:34:55;6.51;85.08
80743;SHT31;70142;50.894;6.052;2023-12-20T04:37:29;6.50;84.95
80743;SHT31;70142;50.894;6.052;2023-12-20T04:40:04;6.42;85.35
80743;SHT31;70142;50.894;6.052;2023-12-20T04:42:38;6.48;85.27
80743;SHT31;70142;50.894;6.052;2023-12-20T04:45:11;6.51;85.18
80743;SHT31;70142;50.894;6.052;2023-12-20T04:47:47;6.51;85.35
80743;SHT31;70142;50.894;6.052;2023-12-20T04:50:21;6.50;85.37
80743;SHT31;70142;50.894;6.052;2023-12-20T04:52:54;6.54;85.32
80743;SHT31;70142;50.894;6.052;2023-12-20T04:55:29;6.58;85.31
80743;SHT31;70142;50.894;6.052;2023-12-20T04:58:02;6.58;85.36
80743;SHT31;70142;50.894;6.052;2023-12-20T05:00:36;6.59;84.96
80743;SHT31;70142;50.894;6.052;2023-12-20T05:03:09;6.65;84.93
80743;SHT31;70142;50.894;6.052;2023-12-20T05:05:42;6.69;84.77
80743;SHT31;70142;50.894;6.052;2023-12-20T05:08:15;6.71;84.67
80743;SHT31;70142;50.894;6.052;2023-12-20T05:10:50;6.78;84.48
80743;SHT31;70142;50.894;6.052;2023-12-20T05:13:23;6.81;84.29
80743;SHT31;70142;50.894;6.052;2023-12-20T05:16:12;6.89;84.14
80743;SHT31;70142;50.894;6.052;2023-12-20T05:18:49;6.85;84.21
80743;SHT31;70142;50.894;6.052;2023-12-20T05:21:24;6.91;84.14
80743;SHT31;70142;50.894;6.052;2023-12-20T05:23:57;6.91;84.04
80743;SHT31;70142;50.894;6.052;2023-12-20T05:26:32;6.84;84.10
80743;SHT31;70142;50.894;6.052;2023-12-20T05:29:05;6.89;83.92
80743;SHT31;70142;50.894;6.052;2023-12-20T05:31:38;6.89;84.03
80743;SHT31;70142;50.894;6.052;2023-12-20T05:34:11;6.92;83.60
80743;SHT31;70142;50.894;6.052;2023-12-20T05:36:44;6.87;83.56
80743;SHT31;70142;50.894;6.052;2023-12-20T05:39:18;6.92;83.46
80743;SHT31;70142;50.894;6.052;2023-12-20T05:41:52;6.96;83.46
80743;SHT31;70142;50.894;6.052;2023-12-20T05:44:25;7.01;83.38
80743;SHT31;70142;50.894;6.052;2023-12-20T05:46:58;6.92;83.25
80743;SHT31;70142;50.894;6.052;2023-12-20T05:49:32;6.96;83.23
80743;SHT31;70142;50.894;6.052;2023-12-20T05:52:05;7.09;83.12
80743;SHT31;70142;50.894;6.052;2023-12-20T05:54:42;7.03;82.69
80743;SHT31;70142;50.894;6.052;2023-12-20T05:57:21;6.98;82.72
80743;SHT31;70142;50.894;6.052;2023-12-20T05:59:55;6.95;83.27
80743;SHT31;70142;50.894;6.052;2023-12-20T06:02:28;6.98;82.87
80743;SHT31;70142;50.894;6.052;2023-12-20T06:05:01;7.01;82.67
80743;SHT31;70142;50.894;6.052;2023-12-20T06:07:34;6.82;83.19
80743;SHT31;70142;50.894;6.052;2023-12-20T06:10:08;6.82;83.36
80743;SHT31;70142;50.894;6.052;2023-12-20T06:12:43;6.82;83.06
80743;SHT31;70142;50.894;6.052;2023-12-20T06:15:17;6.84;83.14
80743;SHT31;70142;50.894;6.052;2023-12-20T06:17:50;6.82;83.15
80743;SHT31;70142;50.894;6.052;2023-12-20T06:20:23;6.81;83.29
80743;SHT31;70142;50.894;6.052;2023-12-20T06:22:57;6.81;83.22
80743;SHT31;70142;50.894;6.052;2023-12-20T06:25:30;6.81;83.05
80743;SHT31;70142;50.894;6.052;2023-12-20T06:28:05;6.74;83.27
80743;SHT31;70142;50.894;6.052;2023-12-20T06:30:39;6.75;83.05
80743;SHT31;70142;50.894;6.052;2023-12-20T06:33:12;6.81;83.13
80743;SHT31;70142;50.894;6.052;2023-12-20T06:35:45;6.85;82.93
80743;SHT31;70142;50.894;6.052;2023-12-20T06:38:19;6.85;82.80
80743;SHT31;70142;50.894;6.052;2023-12-20T06:40:52;6.79;82.71
80743;SHT31;70142;50.894;6.052;2023-12-20T06:43:27;6.78;83.00
80743;SHT31;70142;50.894;6.052;2023-12-20T06:46:22;6.79;83.01
80743;SHT31;70142;50.894;6.052;2023-12-20T06:48:57;6.81;83.01
80743;SHT31;70142;50.894;6.052;2023-12-20T06:51:30;6.79;82.94
80743;SHT31;70142;50.894;6.052;2023-12-20T06:54:06;6.79;82.86
80743;SHT31;70142;50.894;6.052;2023-12-20T06:56:39;6.75;83.02
80743;SHT31;70142;50.894;6.052;2023-12-20T06:59:14;6.65;83.28
80743;SHT31;70142;50.894;6.052;2023-12-20T07:01:48;6.67;83.29
80743;SHT31;70142;50.894;6.052;2023-12-20T07:04:22;6.63;83.45
80743;SHT31;70142;50.894;6.052;2023-12-20T07:06:55;6.58;83.73
80743;SHT31;70142;50.894;6.052;2023-12-20T07:09:30;6.58;83.77
80743;SHT31;70142;50.894;6.052;2023-12-20T07:12:03;6.65;83.12
80743;SHT31;70142;50.894;6.052;2023-12-20T07:14:38;6.58;83.29
80743;SHT31;70142;50.894;6.052;2023-12-20T07:17:11;6.50;83.75
80743;SHT31;70142;50.894;6.052;2023-12-20T07:19:46;6.45;83.76
80743;SHT31;70142;50.894;6.052;2023-12-20T07:22:20;6.50;83.68
80743;SHT31;70142;50.894;6.052;2023-12-20T07:24:53;6.45;83.63
80743;SHT31;70142;50.894;6.052;2023-12-20T07:27:26;6.31;83.81
80743;SHT31;70142;50.894;6.052;2023-12-20T07:30:01;6.30;83.91
80743;SHT31;70142;50.894;6.052;2023-12-20T07:32:34;6.28;83.90
80743;SHT31;70142;50.894;6.052;2023-12-20T07:35:08;6.28;83.84
80743;SHT31;70142;50.894;6.052;2023-12-20T07:37:41;6.34;83.68
80743;SHT31;70142;50.894;6.052;2023-12-20T07:40:15;6.28;83.83
80743;SHT31;70142;50.894;6.052;2023-12-20T07:42:49;6.28;83.84
80743;SHT31;70142;50.894;6.052;2023-12-20T07:45:23;6.26;83.76
80743;SHT31;70142;50.894;6.052;2023-12-20T07:47:56;6.33;83.64
80743;SHT31;70142;50.894;6.052;2023-12-20T07:50:30;6.24;83.81
80743;SHT31;70142;50.894;6.052;2023-12-20T07:53:03;6.31;83.62
80743;SHT31;70142;50.894;6.052;2023-12-20T07:55:37;6.26;83.44
80743;SHT31;70142;50.894;6.052;2023-12-20T07:58:10;6.34;83.26
80743;SHT31;70142;50.894;6.052;2023-12-20T08:00:44;6.31;83.32
80743;SHT31;70142;50.894;6.052;2023-12-20T08:03:17;6.28;83.27
80743;SHT31;70142;50.894;6.052;2023-12-20T08:05:51;6.36;83.32
80743;SHT31;70142;50.894;6.052;2023-12-20T08:08:24;6.47;82.93
80743;SHT31;70142;50.894;6.052;2023-12-20T08:10:57;6.54;82.69
80743;SHT31;70142;50.894;6.052;2023-12-20T08:13:31;6.51;82.63
80743;SHT31;70142;50.894;6.052;2023-12-20T08:16:06;6.47;82.66
80743;SHT31;70142;50.894;6.052;2023-12-20T08:18:40;6.38;82.93
80743;SHT31;70142;50.894;6.052;2023-12-20T08:21:13;6.45;82.97
80743;SHT31;70142;50.894;6.052;2023-12-20T08:23:47;6.50;82.75
80743;SHT31;70142;50.894;6.052;2023-12-20T08:26:21;6.50;82.75
80743;SHT31;70142;50.894;6.052;2023-12-20T08:28:56;6.44;82.68
80743;SHT31;70142;50.894;6.052;2023-12-20T08:31:34;6.51;82.83
80743;SHT31;70142;50.894;6.052;2023-12-20T08:34:07;6.52;82.55
80743;SHT31;70142;50.894;6.052;2023-12-20T08:36:41;6.64;82.28
80743;SHT31;70142;50.894;6.052;2023-12-20T08:39:14;6.58;82.26
80743;SHT31;70142;50.894;6.052;2023-12-20T08:41:47;6.67;82.38
80743;SHT31;70142;50.894;6.052;2023-12-20T08:44:20;6.77;81.91
80743;SHT31;70142;50.894;6.052;2023-12-20T08:46:55;6.77;81.76
80743;SHT31;70142;50.894;6.052;2023-12-20T08:49:29;6.82;81.61
80743;SHT31;70142;50.894;6.052;2023-12-20T08:52:05;6.74;81.79
80743;SHT31;70142;50.894;6.052;2023-12-20T08:54:38;6.77;82.10
80743;SHT31;70142;50.894;6.052;2023-12-20T08:57:14;6.85;81.61
80743;SHT31;70142;50.894;6.052;2023-12-20T08:59:47;6.89;81.66
80743;SHT31;70142;50.894;6.052;2023-12-20T09:02:22;6.93;81.32
80743;SHT31;70142;50.894;6.052;2023-12-20T09:04:55;6.91;81.45
80743;SHT31;70142;50.894;6.052;2023-12-20T09:07:29;6.85;81.34
80743;SHT31;70142;50.894;6.052;2023-12-20T09:10:04;6.84;81.75
80743;SHT31;70142;50.894;6.052;2023-12-20T09:12:37;6.74;81.70
80743;SHT31;70142;50.894;6.052;2023-12-20T09:15:12;6.71;81.77
80743;SHT31;70142;50.894;6.052;2023-12-20T09:17:50;6.78;81.52
80743;SHT31;70142;50.894;6.052;2023-12-20T09:20:23;6.82;81.63
80743;SHT31;70142;50.894;6.052;2023-12-20T09:22:57;6.82;81.63
80743;SHT31;70142;50.894;6.052;2023-12-20T09:25:30;6.85;81.52
80743;SHT31;70142;50.894;6.052;2023-12-20T09:28:04;6.85;81.63
80743;SHT31;70142;50.894;6.052;2023-12-20T09:30:37;6.85;81.43
80743;SHT31;70142;50.894;6.052;2023-12-20T09:33:14;6.82;81.44
80743;SHT31;70142;50.894;6.052;2023-12-20T09:35:48;6.96;81.55
80743;SHT31;70142;50.894;6.052;2023-12-20T09:38:21;6.98;81.38
80743;SHT31;70142;50.894;6.052;2023-12-20T09:40:55;7.05;81.05
80743;SHT31;70142;50.894;6.052;2023-12-20T09:43:29;7.05;81.12
80743;SHT31;70142;50.894;6.052;2023-12-20T09:46:05;7.05;80.94
80743;SHT31;70142;50.894;6.052;2023-12-20T09:48:41;7.13;80.87
80743;SHT31;70142;50.894;6.052;2023-12-20T09:51:16;7.20;80.61
80743;SHT31;70142;50.894;6.052;2023-12-20T09:53:52;7.19;80.50
80743;SHT31;70142;50.894;6.052;2023-12-20T09:56:27;7.16;80.81
80743;SHT31;70142;50.894;6.052;2023-12-20T09:59:01;7.12;80.70
80743;SHT31;70142;50.894;6.052;2023-12-20T10:01:35;7.08;80.65
80743;SHT31;70142;50.894;6.052;2023-12-20T10:04:12;7.12;80.98
80743;SHT31;70142;50.894;6.052;2023-12-20T10:07:02;7.09;80.63
80743;SHT31;70142;50.894;6.052;2023-12-20T10:09:38;7.05;80.94
80743;SHT31;70142;50.894;6.052;2023-12-20T10:12:11;7.09;80.99
80743;SHT31;70142;50.894;6.052;2023-12-20T10:14:44;7.05;80.86
80743;SHT31;70142;50.894;6.052;2023-12-20T10:17:18;7.13;80.52
80743;SHT31;70142;50.894;6.052;2023-12-20T10:19:52;7.15;80.45
80743;SHT31;70142;50.894;6.052;2023-12-20T10:22:26;7.18;80.66
80743;SHT31;70142;50.894;6.052;2023-12-20T10:25:00;7.40;80.45
80743;SHT31;70142;50.894;6.052;2023-12-20T10:27:34;7.56;79.72
80743;SHT31;70142;50.894;6.052;2023-12-20T10:30:08;7.42;79.77
80743;SHT31;70142;50.894;6.052;2023-12-20T10:32:42;7.43;79.90
80743;SHT31;70142;50.894;6.052;2023-12-20T10:35:17;7.37;80.14
80743;SHT31;70142;50.894;6.052;2023-12-20T10:37:55;7.53;79.45
80743;SHT31;70142;50.894;6.052;2023-12-20T10:40:34;7.44;79.31
80743;SHT31;70142;50.894;6.052;2023-12-20T10:43:11;7.47;79.64
80743;SHT31;70142;50.894;6.052;2023-12-20T10:45:45;7.50;79.38
80743;SHT31;70142;50.894;6.052;2023-12-20T10:48:20;7.50;79.80
80743;SHT31;70142;50.894;6.052;2023-12-20T10:50:57;7.43;79.93
80743;SHT31;70142;50.894;6.052;2023-12-20T10:53:32;7.42;79.78
80743;SHT31;70142;50.894;6.052;2023-12-20T10:56:14;7.36;80.40
80743;SHT31;70142;50.894;6.052;2023-12-20T10:58:49;7.47;80.03
80743;SHT31;70142;50.894;6.052;2023-12-20T11:01:23;7.36;80.08
80743;SHT31;70142;50.894;6.052;2023-12-20T11:03:58;7.40;80.34
80743;SHT31;70142;50.894;6.052;2023-12-20T11:06:43;7.46;79.83
80743;SHT31;70142;50.894;6.052;2023-12-20T11:09:24;7.47;80.02
80743;SHT31;70142;50.894;6.052;2023-12-20T11:12:06;7.47;80.10
80743;SHT31;70142;50.894;6.052;2023-12-20T11:14:46;7.53;79.76
80743;SHT31;70142;50.894;6.052;2023-12-20T11:17:21;7.54;79.80
80743;SHT31;70142;50.894;6.052;2023-12-20T11:20:08;7.64;79.33
80743;SHT31;70142;50.894;6.052;2023-12-20T11:22:53;7.66;79.50
80743;SHT31;70142;50.894;6.052;2023-12-20T11:25:28;7.59;79.69
80743;SHT31;70142;50.894;6.052;2023-12-20T11:28:10;7.63;79.62
80743;SHT31;70142;50.894;6.052;2023-12-20T11:30:47;7.66;79.53
80743;SHT31;70142;50.894;6.052;2023-12-20T11:33:22;7.59;79.62
80743;SHT31;70142;50.894;6.052;2023-12-20T11:36:00;7.71;79.55
80743;SHT31;70142;50.894;6.052;2023-12-20T11:38:37;7.91;78.95
80743;SHT31;70142;50.894;6.052;2023-12-20T11:41:11;7.78;79.06
80743;SHT31;70142;50.894;6.052;2023-12-20T11:43:44;7.81;79.34
80743;SHT31;70142;50.894;6.052;2023-12-20T11:46:17;7.80;79.23
80743;SHT31;70142;50.894;6.052;2023-12-20T11:48:54;7.71;79.85
80743;SHT31;70142;50.894;6.052;2023-12-20T11:51:28;7.69;79.92
80743;SHT31;70142;50.894;6.052;2023-12-20T11:54:03;7.64;79.85
80743;SHT31;70142;50.894;6.052;2023-12-20T11:56:36;7.57;79.99
80743;SHT31;70142;50.894;6.052;2023-12-20T11:59:09;7.57;80.36
80743;SHT31;70142;50.894;6.052;2023-12-20T12:01:54;7.66;80.36
80743;SHT31;70142;50.894;6.052;2023-12-20T12:04:32;7.74;80.12
80743;SHT31;70142;50.894;6.052;2023-12-20T12:07:05;7.76;80.17
80743;SHT31;70142;50.894;6.052;2023-12-20T12:09:40;7.81;79.76
80743;SHT31;70142;50.894;6.052;2023-12-20T12:12:15;7.67;79.78
80743;SHT31;70142;50.894;6.052;2023-12-20T12:14:49;7.83;80.13
80743;SHT31;70142;50.894;6.052;2023-12-20T12:17:22;8.01;79.53
80743;SHT31;70142;50.894;6.052;2023-12-20T12:20:03;7.98;79.48
80743;SHT31;70142;50.894;6.052;2023-12-20T12:22:37;7.84;79.67
80743;SHT31;70142;50.894;6.052;2023-12-20T12:25:14;7.81;80.18
80743;SHT31;70142;50.894;6.052;2023-12-20T12:27:48;7.80;80.27
80743;SHT31;70142;50.894;6.052;2023-12-20T12:30:21;7.80;80.42
80743;SHT31;70142;50.894;6.052;2023-12-20T12:32:56;7.83;80.64
80743;SHT31;70142;50.894;6.052;2023-12-20T12:35:29;7.69;81.40
80743;SHT31;70142;50.894;6.052;2023-12-20T12:38:07;7.62;82.26
80743;SHT31;70142;50.894;6.052;2023-12-20T12:40:43;7.46;82.69
80743;SHT31;70142;50.894;6.052;2023-12-20T12:43:16;7.46;83.32
80743;SHT31;70142;50.894;6.052;2023-12-20T12:45:50;7.50;83.28
80743;SHT31;70142;50.894;6.052;2023-12-20T12:48:23;7.56;83.84
80743;SHT31;70142;50.894;6.052;2023-12-20T12:50:56;7.50;83.51
80743;SHT31;70142;50.894;6.052;2023-12-20T12:53:31;7.64;83.79
80743;SHT31;70142;50.894;6.052;2023-12-20T12:56:06;7.74;83.62
80743;SHT31;70142;50.894;6.052;2023-12-20T12:58:39;7.70;83.32
80743;SHT31;70142;50.894;6.052;2023-12-20T13:01:12;7.76;83.64
80743;SHT31;70142;50.894;6.052;2023-12-20T13:03:46;7.81;82.95
80743;SHT31;70142;50.894;6.052;2023-12-20T13:06:20;7.84;82.81
80743;SHT31;70142;50.894;6.052;2023-12-20T13:08:53;7.85;82.83
80743;SHT31;70142;50.894;6.052;2023-12-20T13:11:31;7.84;83.17
80743;SHT31;70142;50.894;6.052;2023-12-20T13:14:06;7.85;83.30
80743;SHT31;70142;50.894;6.052;2023-12-20T13:16:42;7.97;82.83
80743;SHT31;70142;50.894;6.052;2023-12-20T13:19:17;7.99;82.57
80743;SHT31;70142;50.894;6.052;2023-12-20T13:21:53;7.95;82.70
80743;SHT31;70142;50.894;6.052;2023-12-20T13:24:26;7.97;83.02
80743;SHT31;70142;50.894;6.052;2023-12-20T13:27:01;7.99;83.35
80743;SHT31;70142;50.894;6.052;2023-12-20T13:29:34;7.94;83.12
80743;SHT31;70142;50.894;6.052;2023-12-20T13:32:10;7.85;83.34
80743;SHT31;70142;50.894;6.052;2023-12-20T13:34:44;7.91;83.54
80743;SHT31;70142;50.894;6.052;2023-12-20T13:37:17;7.91;83.48
80743;SHT31;70142;50.894;6.052;2023-12-20T13:39:51;8.04;83.07
80743;SHT31;70142;50.894;6.052;2023-12-20T13:42:25;7.99;83.09
80743;SHT31;70142;50.894;6.052;2023-12-20T13:44:59;8.05;83.43
80743;SHT31;70142;50.894;6.052;2023-12-20T13:47:32;8.20;82.81
80743;SHT31;70142;50.894;6.052;2023-12-20T13:50:06;8.15;82.93
80743;SHT31;70142;50.894;6.052;2023-12-20T13:52:40;8.11;82.65
80743;SHT31;70142;50.894;6.052;2023-12-20T13:55:13;8.14;82.63
80743;SHT31;70142;50.894;6.052;2023-12-20T13:57:48;8.12;82.77
80743;SHT31;70142;50.894;6.052;2023-12-20T14:00:27;8.12;82.85
80743;SHT31;70142;50.894;6.052;2023-12-20T14:03:00;8.22;82.70
80743;SHT31;70142;50.894;6.052;2023-12-20T14:05:33;8.20;82.33
80743;SHT31;70142;50.894;6.052;2023-12-20T14:08:09;8.22;82.58
80743;SHT31;70142;50.894;6.052;2023-12-20T14:10:42;8.25;82.55
80743;SHT31;70142;50.894;6.052;2023-12-20T14:13:17;8.25;82.34
80743;SHT31;70142;50.894;6.052;2023-12-20T14:15:50;8.21;82.78
80743;SHT31;70142;50.894;6.052;2023-12-20T14:18:23;8.20;82.59
80743;SHT31;70142;50.894;6.052;2023-12-20T14:20:59;8.24;82.58
80743;SHT31;70142;50.894;6.052;2023-12-20T14:23:32;8.29;82.35
80743;SHT31;70142;50.894;6.052;2023-12-20T14:26:06;8.31;82.24
80743;SHT31;70142;50.894;6.052;2023-12-20T14:28:41;8.32;82.30
80743;SHT31;70142;50.894;6.052;2023-12-20T14:31:14;8.35;81.89
80743;SHT31;70142;50.894;6.052;2023-12-20T14:33:47;8.31;81.89
80743;SHT31;70142;50.894;6.052;2023-12-20T14:36:22;8.31;82.04
80743;SHT31;70142;50.894;6.052;2023-12-20T14:38:55;8.34;82.26
80743;SHT31;70142;50.894;6.052;2023-12-20T14:41:28;8.32;82.24
80743;SHT31;70142;50.894;6.052;2023-12-20T14:44:04;8.32;82.53
80743;SHT31;70142;50.894;6.052;2023-12-20T14:46:38;8.31;82.25
80743;SHT31;70142;50.894;6.052;2023-12-20T14:49:13;8.29;82.30
80743;SHT31;70142;50.894;6.052;2023-12-20T14:51:46;8.27;82.48
80743;SHT31;70142;50.894;6.052;2023-12-20T14:54:20;8.31;82.37
80743;SHT31;70142;50.894;6.052;2023-12-20T14:56:53;8.21;83.01
80743;SHT31;70142;50.894;6.052;2023-12-20T14:59:37;8.21;83.23
80743;SHT31;70142;50.894;6.052;2023-12-20T15:02:10;8.29;83.45
80743;SHT31;70142;50.894;6.052;2023-12-20T15:04:43;8.12;83.99
80743;SHT31;70142;50.894;6.052;2023-12-20T15:07:16;8.08;84.85
80743;SHT31;70142;50.894;6.052;2023-12-20T15:09:50;8.11;84.83
80743;SHT31;70142;50.894;6.052;2023-12-20T15:12:23;8.07;85.12
80743;SHT31;70142;50.894;6.052;2023-12-20T15:14:57;8.11;84.92
80743;SHT31;70142;50.894;6.052;2023-12-20T15:17:31;8.14;84.87
80743;SHT31;70142;50.894;6.052;2023-12-20T15:20:05;8.24;84.58
80743;SHT31;70142;50.894;6.052;2023-12-20T15:22:41;8.27;84.41
80743;SHT31;70142;50.894;6.052;2023-12-20T15:25:18;8.20;84.67
80743;SHT31;70142;50.894;6.052;2023-12-20T15:27:54;8.27;84.30
80743;SHT31;70142;50.894;6.052;2023-12-20T15:30:28;8.21;84.14
80743;SHT31;70142;50.894;6.052;2023-12-20T15:33:02;8.24;84.02
80743;SHT31;70142;50.894;6.052;2023-12-20T15:35:38;8.31;83.99
80743;SHT31;70142;50.894;6.052;2023-12-20T15:38:12;8.37;83.44
80743;SHT31;70142;50.894;6.052;2023-12-20T15:40:46;8.32;83.57
80743;SHT31;70142;50.894;6.052;2023-12-20T15:43:20;8.42;83.15
80743;SHT31;70142;50.894;6.052;2023-12-20T15:45:57;8.42;83.10
80743;SHT31;70142;50.894;6.052;2023-12-20T15:48:31;8.44;83.02
80743;SHT31;70142;50.894;6.052;2023-12-20T15:51:05;8.44;83.12
80743;SHT31;70142;50.894;6.052;2023-12-20T15:53:38;8.41;83.13
80743;SHT31;70142;50.894;6.052;2023-12-20T15:56:11;8.37;83.07
80743;SHT31;70142;50.894;6.052;2023-12-20T15:58:46;8.39;82.69
80743;SHT31;70142;50.894;6.052;2023-12-20T16:01:21;8.38;82.95
80743;SHT31;70142;50.894;6.052;2023-12-20T16:03:55;8.39;82.76
80743;SHT31;70142;50.894;6.052;2023-12-20T16:06:31;8.45;82.74
80743;SHT31;70142;50.894;6.052;2023-12-20T16:09:06;8.50;82.44
80743;SHT31;70142;50.894;6.052;2023-12-20T16:11:39;8.52;82.28
80743;SHT31;70142;50.894;6.052;2023-12-20T16:14:14;8.46;82.40
80743;SHT31;70142;50.894;6.052;2023-12-20T16:16:51;8.48;82.56
80743;SHT31;70142;50.894;6.052;2023-12-20T16:19:24;8.45;82.39
80743;SHT31;70142;50.894;6.052;2023-12-20T16:21:58;8.46;82.47
80743;SHT31;70142;50.894;6.052;2023-12-20T16:24:34;8.49;82.42
80743;SHT31;70142;50.894;6.052;2023-12-20T16:27:07;8.59;82.26
80743;SHT31;70142;50.894;6.052;2023-12-20T16:29:41;8.62;81.97